Buoy 44845

sailwx.info

Track history (hours):
 
Tides and Currents Weather Stations Pressure Air Temp Water Temp Dewpoint Dewpoint Depression Visibility Wind Speed Wind Dir Waves Ship Positions

Drifting buoy 44845

Last reported at 2014-Nov-23 19:01 UTC. Time now 2014-Nov-23 20:05 UTC.
Position N 71°13' W 002°33'.

Water temperature 6.7 ° C

Date/timePositionNaut miles runAvg speedWind from/ knotsBaromVisibWave heightAir tempDewpointWater temp
2014-Nov-23 19:01N 71°13' W 002°33'0 0.4 6.7
2014-Nov-23 18:01N 71°13' W 002°34'0 0.4 6.8
2014-Nov-23 17:01N 71°13' W 002°35'1 0.8 6.8
2014-Nov-23 16:01N 71°12' W 002°37'0 0.4 6.8
2014-Nov-23 15:01N 71°12' W 002°38'1 0.7 6.8
2014-Nov-23 14:02N 71°11' W 002°40'1 0.6 6.8
2014-Nov-23 13:01N 71°11' W 002°40'0 0.4 6.8
2014-Nov-23 12:01N 71°11' W 002°41'1 0.6 6.9
2014-Nov-23 11:01N 71°10' W 002°42'1 0.6 6.9
2014-Nov-23 10:01N 71°10' W 002°43'0 0.4 6.8
2014-Nov-23 09:01N 71°10' W 002°44'0 0.4 6.8
2014-Nov-23 08:01N 71°10' W 002°45'1 0.8 6.8
2014-Nov-23 07:01N 71°09' W 002°47'1 0.8 6.8
2014-Nov-23 06:01N 71°08' W 002°49'1 0.6 6.7
2014-Nov-23 05:01N 71°08' W 002°50'1 0.8 6.7
2014-Nov-23 04:01N 71°08' W 002°52'1 0.7 6.6
2014-Nov-23 03:01N 71°07' W 002°53'1 1.3 6.8
2014-Nov-23 02:01N 71°06' W 002°55'1 0.6 6.8
2014-Nov-23 01:01N 71°05' W 002°55'1 0.6 6.8
2014-Nov-23 00:01N 71°05' W 002°56'1 0.7 6.8
2014-Nov-22 23:01N 71°04' W 002°57'1 0.7 7.4
2014-Nov-22 22:01N 71°04' W 002°58'1 1.3 7.5
2014-Nov-22 21:01N 71°02' W 002°59'1 0.6 7.6
2014-Nov-22 20:01N 71°02' W 003°00'1 0.7 7.6
2014-Nov-22 19:01N 71°01' W 003°01'1 0.6 7.7
2014-Nov-22 18:01N 71°01' W 003°02'1 0.6 7.7
2014-Nov-22 17:01N 71°00' W 003°02'1 0.6 7.7
2014-Nov-22 16:01N 70°59' W 003°02'1 0.6 7.7
2014-Nov-22 15:01N 70°59' W 003°02'1 0.6 7.7
2014-Nov-22 14:01N 70°58' W 003°02'1 0.6 7.7
2014-Nov-22 13:01N 70°58' W 003°02'1 0.6 7.7
2014-Nov-22 12:01N 70°57' W 003°02'1 0.6 7.7
2014-Nov-22 11:01N 70°56' W 003°01'0 0.0 7.7
2014-Nov-22 10:01N 70°56' W 003°01'1 0.6 7.7
2014-Nov-22 09:01N 70°56' W 003°01'0 0.0 7.7
2014-Nov-22 08:01N 70°56' W 003°01'1 0.6 7.7
2014-Nov-22 07:01N 70°55' W 003°01'1 0.6 7.7
2014-Nov-22 06:01N 70°55' W 003°01'0 0.0 7.7
2014-Nov-22 05:01N 70°55' W 003°01'1 0.6 7.7
2014-Nov-22 04:01N 70°54' W 003°01'1 0.6 7.7
2014-Nov-22 03:01N 70°53' W 003°01'1 0.6 7.6
2014-Nov-22 02:01N 70°53' W 003°00'1 0.7 7.6
2014-Nov-22 01:01N 70°52' W 002°59'1 0.7 7.5
2014-Nov-22 00:01N 70°52' W 002°58'0 0.2 7.4
2014-Nov-21 23:01N 70°52' W 002°57'1 0.6 7.3
2014-Nov-21 22:01N 70°51' W 002°56'1 0.7 7.1
2014-Nov-21 21:01N 70°50' W 002°55'1 0.6 6.3
2014-Nov-21 20:01N 70°50' W 002°55'1 0.7 6.1
2014-Nov-21 19:01N 70°49' W 002°53'1 0.7 6.1
2014-Nov-21 18:01N 70°49' W 002°52'1 0.8 6.1
2014-Nov-21 17:01N 70°48' W 002°50'1 0.7 6.1
2014-Nov-21 16:01N 70°47' W 002°49'1 0.6 6.0
2014-Nov-21 15:01N 70°47' W 002°49'1 0.7 6.4
2014-Nov-21 14:01N 70°46' W 002°47'1 0.8 6.7
2014-Nov-21 13:01N 70°46' W 002°46'1 0.8 6.7
2014-Nov-21 12:01N 70°45' W 002°44'1 0.6 6.6
2014-Nov-21 11:01N 70°45' W 002°42'1 0.8 6.6
2014-Nov-21 10:01N 70°44' W 002°40'1 0.8 6.5
2014-Nov-21 09:01N 70°44' W 002°38'1 1.0 6.4
2014-Nov-21 08:01N 70°43' W 002°36'1 1.0 6.4
2014-Nov-21 07:01N 70°43' W 002°34'1 1.0 6.3
2014-Nov-21 06:01N 70°42' W 002°31'1 1.0 6.4
2014-Nov-21 05:01N 70°41' W 002°29'1 1.3 6.4
2014-Nov-21 04:01N 70°40' W 002°27'1 1.4 6.4
2014-Nov-21 03:01N 70°39' W 002°25'1 0.7 6.1
2014-Nov-21 02:01N 70°38' W 002°23'1 1.3 6.0
2014-Nov-21 01:01N 70°37' W 002°22'1 1.2 6.0
2014-Nov-21 00:01N 70°36' W 002°22'1 1.2 6.0
2014-Nov-20 23:01N 70°35' W 002°22'1 0.6 6.0
2014-Nov-20 22:01N 70°34' W 002°22'1 1.2 6.0
2014-Nov-20 21:01N 70°33' W 002°22'1 1.2 6.0
2014-Nov-20 20:01N 70°32' W 002°23'1 0.7 6.0
2014-Nov-20 19:01N 70°31' W 002°24'1 1.3 6.0
2014-Nov-20 18:01N 70°30' W 002°25'1 0.7 6.0
2014-Nov-20 17:01N 70°29' W 002°26'1 1.0 5.9
2014-Nov-20 16:01N 70°29' W 002°29'1 0.8 6.0
2014-Nov-20 15:01N 70°28' W 002°31'1 1.0 6.0
2014-Nov-20 14:01N 70°28' W 002°33'1 1.4 5.9
2014-Nov-20 13:01N 70°26' W 002°35'1 1.2 5.9
2014-Nov-20 12:01N 70°26' W 002°38'1 0.9 5.9
2014-Nov-20 11:01N 70°25' W 002°40'2 2.2 6.0
2014-Nov-20 10:01N 70°23' W 002°44'0 0.0 6.1
2014-Nov-20 09:01N 70°23' W 002°44'1 1.0 6.1
2014-Nov-20 08:01N 70°23' W 002°46'1 0.9 6.1
2014-Nov-20 07:01N 70°22' W 002°48'1 1.4 6.1
2014-Nov-20 06:01N 70°21' W 002°50'1 0.9 6.1
2014-Nov-20 05:01N 70°20' W 002°52'1 1.0 6.1
2014-Nov-20 04:01N 70°20' W 002°55'1 0.8 6.1
2014-Nov-20 03:01N 70°20' W 002°57'1 1.0 6.1
2014-Nov-20 02:01N 70°19' W 002°59'1 0.9 6.1
2014-Nov-20 01:01N 70°19' W 003°01'1 0.9 6.1
2014-Nov-20 00:01N 70°18' W 003°03'1 0.9 6.1
2014-Nov-19 23:01N 70°17' W 003°05'1 1.3 6.2
2014-Nov-19 22:01N 70°16' W 003°06'1 0.6 6.2
2014-Nov-19 21:01N 70°16' W 003°08'1 0.9 6.2
2014-Nov-19 20:01N 70°16' W 003°10'1 0.7 6.2
2014-Nov-19 19:01N 70°15' W 003°11'1 0.7 6.2
2014-Nov-19 18:01N 70°14' W 003°12'1 0.9 6.2
2014-Nov-19 17:01N 70°14' W 003°14'1 0.7 6.3
2014-Nov-19 16:01N 70°13' W 003°15'0 0.2 6.4
2014-Nov-19 15:01N 70°13' W 003°16'1 0.7 6.4
2014-Nov-19 14:01N 70°13' W 003°17'0 0.4 6.3
2014-Nov-19 13:01N 70°13' W 003°18'1 0.7 6.4
2014-Nov-19 12:01N 70°12' W 003°19'1 0.7 6.4
2014-Nov-19 11:01N 70°11' W 003°20'0 0.2 6.4
2014-Nov-19 10:01N 70°11' W 003°21'0 0.4 6.4
2014-Nov-19 09:01N 70°11' W 003°22'1 0.7 6.3
2014-Nov-19 08:01N 70°11' W 003°23'0 0.4 6.3
2014-Nov-19 07:01N 70°11' W 003°25'1 0.7 6.3
2014-Nov-19 06:01N 70°10' W 003°26'0 0.4 6.4
2014-Nov-19 05:01N 70°10' W 003°27'0 0.4 6.6
2014-Nov-19 04:01N 70°10' W 003°28'1 0.6 6.5
2014-Nov-19 03:01N 70°10' W 003°29'1 0.6 6.3
2014-Nov-19 02:01N 70°10' W 003°31'0 0.4 6.2
2014-Nov-19 01:01N 70°10' W 003°32'0 0.4 6.2
2014-Nov-19 00:01N 70°10' W 003°33'1 0.8 6.2
2014-Nov-18 23:01N 70°10' W 003°35'1 0.6 6.2
2014-Nov-18 22:01N 70°10' W 003°37'1 1.0 6.3
2014-Nov-18 21:01N 70°09' W 003°40'1 0.8 6.4
2014-Nov-18 20:01N 70°09' W 003°42'0 0.5 6.5
2014-Nov-18 19:01N 70°09' W 003°43'1 0.9 6.6
2014-Nov-18 18:01N 70°08' W 003°45'1 0.8 6.7
2014-Nov-18 17:01N 70°08' W 003°47'1 0.6 6.8
2014-Nov-18 16:01N 70°09' W 003°49'1 0.6 6.8
2014-Nov-18 15:01N 70°08' W 003°51'1 0.7 6.9
2014-Nov-18 14:01N 70°08' W 003°53'1 0.9 6.9
2014-Nov-18 13:01N 70°08' W 003°56'1 1.0 6.9
2014-Nov-18 12:01N 70°08' W 003°59'1 1.0 7.0
2014-Nov-18 11:01N 70°08' W 004°01'1 0.8 7.0
2014-Nov-18 10:01N 70°08' W 004°04'1 1.0 7.1
2014-Nov-18 09:01N 70°07' W 004°06'1 0.6 7.1
2014-Nov-18 08:01N 70°07' W 004°08'1 0.9 7.1
2014-Nov-18 07:01N 70°07' W 004°10'1 0.6 7.1
2014-Nov-18 06:01N 70°07' W 004°11'0 0.4 7.1
2014-Nov-18 05:01N 70°07' W 004°13'1 0.9 7.1
2014-Nov-18 04:01N 70°06' W 004°14'1 0.6 7.1
2014-Nov-18 03:01N 70°06' W 004°16'1 0.6 7.1
2014-Nov-18 02:01N 70°06' W 004°18'1 0.6 7.1
2014-Nov-18 01:01N 70°06' W 004°20'1 1.0 7.1
2014-Nov-18 00:01N 70°05' W 004°22'1 0.8 7.1
2014-Nov-17 23:01N 70°05' W 004°25'1 0.9 7.1
2014-Nov-17 22:01N 70°05' W 004°26'1 1.0 7.1
2014-Nov-17 21:01N 70°04' W 004°29'1 0.6 7.1
2014-Nov-17 20:01N 70°04' W 004°31'1 0.7 7.1
2014-Nov-17 19:01N 70°04' W 004°32'1 0.9 7.1
2014-Nov-17 18:01N 70°03' W 004°34'1 0.7 7.1
2014-Nov-17 17:01N 70°02' W 004°35'1 0.7 7.1
2014-Nov-17 16:01N 70°02' W 004°36'0 0.4 7.1
2014-Nov-17 15:01N 70°02' W 004°37'1 0.9 7.1
2014-Nov-17 14:01N 70°01' W 004°39'1 0.7 7.1
2014-Nov-17 13:01N 70°01' W 004°40'0 0.4 7.1
2014-Nov-17 12:01N 70°01' W 004°41'1 0.6 7.1
2014-Nov-17 11:01N 70°00' W 004°42'1 0.7 7.1
2014-Nov-17 10:01N 69°59' W 004°43'1 0.7 7.1
2014-Nov-17 09:01N 69°59' W 004°44'1 1.3 7.1
2014-Nov-17 08:01N 69°58' W 004°46'0 0.0 7.1
2014-Nov-17 07:01N 69°58' W 004°46'1 0.6 7.1
2014-Nov-17 06:01N 69°57' W 004°46'0 0.0 7.1
2014-Nov-17 05:01N 69°57' W 004°46'1 0.6 7.0
2014-Nov-17 04:01N 69°56' W 004°46'1 0.6 7.0
2014-Nov-17 03:01N 69°56' W 004°45'0 0.2 7.0
2014-Nov-17 02:01N 69°56' W 004°44'1 0.6 7.0
2014-Nov-17 01:01N 69°55' W 004°44'0 0.2 7.0
2014-Nov-17 00:01N 69°55' W 004°44'1 0.6 7.0
2014-Nov-16 23:01N 69°55' W 004°44'0 0.2 7.0
2014-Nov-16 22:01N 69°55' W 004°43'1 0.6 7.0
2014-Nov-16 21:01N 69°54' W 004°43'0 0.2 7.0
2014-Nov-16 20:01N 69°54' W 004°43'1 0.6 7.1
2014-Nov-16 19:01N 69°53' W 004°42'0 0.4 7.1
2014-Nov-16 18:01N 69°53' W 004°41'1 0.6 7.1
2014-Nov-16 17:01N 69°53' W 004°40'0 0.4 7.1
2014-Nov-16 16:01N 69°53' W 004°39'0 0.4 7.1
2014-Nov-16 15:01N 69°53' W 004°38'0 0.2 7.1
2014-Nov-16 14:01N 69°53' W 004°37'0 0.2 7.1
2014-Nov-16 13:01N 69°53' W 004°37'0 0.2 7.1
2014-Nov-16 12:01N 69°53' W 004°36'0 0.2 7.1
2014-Nov-16 11:01N 69°53' W 004°35'0 0.2 7.1
2014-Nov-16 10:01N 69°53' W 004°35'1 0.6 7.1
2014-Nov-16 09:01N 69°52' W 004°34'0 0.2 7.1
2014-Nov-16 08:01N 69°52' W 004°34'1 0.6 7.1
2014-Nov-16 07:01N 69°52' W 004°32'0 0.4 7.1
2014-Nov-16 06:01N 69°52' W 004°31'0 0.4 7.1
2014-Nov-16 05:01N 69°52' W 004°29'1 0.9 7.1
2014-Nov-16 04:01N 69°53' W 004°28'1 0.6 7.0
2014-Nov-16 03:01N 69°53' W 004°26'1 0.9 7.0
2014-Nov-16 02:01N 69°53' W 004°24'1 0.6 6.9
2014-Nov-16 01:01N 69°54' W 004°23'0 0.2 6.8
2014-Nov-16 00:01N 69°54' W 004°23'0 0.4 6.1
2014-Nov-15 23:01N 69°54' W 004°22'0 0.2 6.1
2014-Nov-15 22:01N 69°54' W 004°21'0 0.4 6.1
2014-Nov-15 21:01N 69°54' W 004°20'0 0.2 6.1
2014-Nov-15 20:01N 69°54' W 004°19'1 0.7 6.1
2014-Nov-15 19:01N 69°55' W 004°18'1 0.6 6.1
2014-Nov-15 18:01N 69°55' W 004°16'0 0.4 6.1
2014-Nov-15 17:01N 69°55' W 004°15'0 0.4 6.1
2014-Nov-15 16:01N 69°55' W 004°14'1 0.9 6.1
2014-Nov-15 15:01N 69°55' W 004°12'0 0.2 6.1
2014-Nov-15 14:01N 69°55' W 004°11'0 0.4 6.1
2014-Nov-15 13:01N 69°55' W 004°10'0 0.2 6.1
2014-Nov-15 12:01N 69°55' W 004°10'0 0.4 6.1
2014-Nov-15 11:01N 69°55' W 004°08'0 0.4 6.1
2014-Nov-15 10:01N 69°55' W 004°07'1 0.7 6.0
2014-Nov-15 09:01N 69°56' W 004°06'1 0.6 6.0
2014-Nov-15 08:01N 69°56' W 004°04'0 0.4 6.0
2014-Nov-15 07:01N 69°56' W 004°03'0 0.4 6.0
2014-Nov-15 06:01N 69°56' W 004°02'1 0.7 6.0
2014-Nov-15 05:01N 69°56' W 004°01'1 0.6 6.0
2014-Nov-15 04:01N 69°56' W 003°59'0 0.4 6.0
2014-Nov-15 03:01N 69°56' W 003°58'0 0.4 6.0
2014-Nov-15 02:01N 69°56' W 003°56'1 0.6 6.0
2014-Nov-15 01:01N 69°56' W 003°55'0 0.4 6.0
2014-Nov-15 00:01N 69°56' W 003°53'0 0.4 6.0
2014-Nov-14 23:01N 69°56' W 003°52'1 1.0 6.0
2014-Nov-14 22:01N 69°57' W 003°50'0 0.0 6.0
2014-Nov-14 21:01N 69°57' W 003°50'0 0.4 6.0
2014-Nov-14 20:01N 69°57' W 003°49'0 0.4 6.1
2014-Nov-14 19:01N 69°57' W 003°47'1 0.7 6.1
2014-Nov-14 18:01N 69°58' W 003°46'0 0.4 6.1
2014-Nov-14 17:01N 69°58' W 003°45'0 0.4 6.1
2014-Nov-14 16:01N 69°58' W 003°44'1 0.6 6.0
2014-Nov-14 15:01N 69°58' W 003°42'1 0.7 5.9
2014-Nov-14 14:01N 69°57' W 003°41'0 0.4 6.0
2014-Nov-14 13:01N 69°57' W 003°40'0 0.4 6.0
2014-Nov-14 12:01N 69°57' W 003°38'0 0.4 6.0
2014-Nov-14 11:01N 69°57' W 003°37'0 0.4 6.0
2014-Nov-14 10:01N 69°57' W 003°36'1 0.7 6.0
2014-Nov-14 09:01N 69°56' W 003°35'0 0.4 6.0
2014-Nov-14 08:01N 69°56' W 003°34'1 0.7 6.0
2014-Nov-14 07:01N 69°57' W 003°32'0 0.2 6.0
2014-Nov-14 06:01N 69°57' W 003°32'0 0.2 6.0
2014-Nov-14 05:01N 69°57' W 003°31'0 0.2 6.0
2014-Nov-14 04:01N 69°57' W 003°31'1 0.6 6.0
2014-Nov-14 03:01N 69°56' W 003°30'0 0.2 6.0
2014-Nov-14 02:01N 69°56' W 003°29'1 0.6 6.0
2014-Nov-14 01:01N 69°56' W 003°29'0 0.2 6.0
2014-Nov-14 00:01N 69°56' W 003°28'1 0.7 6.0
2014-Nov-13 23:01N 69°55' W 003°27'0 0.2 6.0
2014-Nov-13 22:01N 69°55' W 003°26'1 0.6 6.1
2014-Nov-13 21:01N 69°55' W 003°26'0 0.2 6.0
2014-Nov-13 20:01N 69°55' W 003°26'0 0.2 6.0
2014-Nov-13 19:01N 69°55' W 003°25'   6.0
Track history (hours):
 
Tides and Currents Weather Stations Pressure Air Temp Water Temp Dewpoint Dewpoint Depression Visibility Wind Speed Wind Dir Waves Ship Positions

Drifting buoy 44845

Last reported at 2014-Nov-23 19:01 UTC. Time now 2014-Nov-23 20:05 UTC.
Position N 71°13' W 002°33'.

Water temperature 6.7 ° C

Date/timePositionNaut miles runAvg speedWind from/ knotsBaromVisibWave heightAir tempDewpointWater temp
2014-Nov-23 19:01N 71°13' W 002°33'0 0.4 6.7
2014-Nov-23 18:01N 71°13' W 002°34'0 0.4 6.8
2014-Nov-23 17:01N 71°13' W 002°35'1 0.8 6.8
2014-Nov-23 16:01N 71°12' W 002°37'0 0.4 6.8
2014-Nov-23 15:01N 71°12' W 002°38'1 0.7 6.8
2014-Nov-23 14:02N 71°11' W 002°40'1 0.6 6.8
2014-Nov-23 13:01N 71°11' W 002°40'0 0.4 6.8
2014-Nov-23 12:01N 71°11' W 002°41'1 0.6 6.9
2014-Nov-23 11:01N 71°10' W 002°42'1 0.6 6.9
2014-Nov-23 10:01N 71°10' W 002°43'0 0.4 6.8
2014-Nov-23 09:01N 71°10' W 002°44'0 0.4 6.8
2014-Nov-23 08:01N 71°10' W 002°45'1 0.8 6.8
2014-Nov-23 07:01N 71°09' W 002°47'1 0.8 6.8
2014-Nov-23 06:01N 71°08' W 002°49'1 0.6 6.7
2014-Nov-23 05:01N 71°08' W 002°50'1 0.8 6.7
2014-Nov-23 04:01N 71°08' W 002°52'1 0.7 6.6
2014-Nov-23 03:01N 71°07' W 002°53'1 1.3 6.8
2014-Nov-23 02:01N 71°06' W 002°55'1 0.6 6.8
2014-Nov-23 01:01N 71°05' W 002°55'1 0.6 6.8
2014-Nov-23 00:01N 71°05' W 002°56'1 0.7 6.8
2014-Nov-22 23:01N 71°04' W 002°57'1 0.7 7.4
2014-Nov-22 22:01N 71°04' W 002°58'1 1.3 7.5
2014-Nov-22 21:01N 71°02' W 002°59'1 0.6 7.6
2014-Nov-22 20:01N 71°02' W 003°00'1 0.7 7.6
2014-Nov-22 19:01N 71°01' W 003°01'1 0.6 7.7
2014-Nov-22 18:01N 71°01' W 003°02'1 0.6 7.7
2014-Nov-22 17:01N 71°00' W 003°02'1 0.6 7.7
2014-Nov-22 16:01N 70°59' W 003°02'1 0.6 7.7
2014-Nov-22 15:01N 70°59' W 003°02'1 0.6 7.7
2014-Nov-22 14:01N 70°58' W 003°02'1 0.6 7.7
2014-Nov-22 13:01N 70°58' W 003°02'1 0.6 7.7
2014-Nov-22 12:01N 70°57' W 003°02'1 0.6 7.7
2014-Nov-22 11:01N 70°56' W 003°01'0 0.0 7.7
2014-Nov-22 10:01N 70°56' W 003°01'1 0.6 7.7
2014-Nov-22 09:01N 70°56' W 003°01'0 0.0 7.7
2014-Nov-22 08:01N 70°56' W 003°01'1 0.6 7.7
2014-Nov-22 07:01N 70°55' W 003°01'1 0.6 7.7
2014-Nov-22 06:01N 70°55' W 003°01'0 0.0 7.7
2014-Nov-22 05:01N 70°55' W 003°01'1 0.6 7.7
2014-Nov-22 04:01N 70°54' W 003°01'1 0.6 7.7
2014-Nov-22 03:01N 70°53' W 003°01'1 0.6 7.6
2014-Nov-22 02:01N 70°53' W 003°00'1 0.7 7.6
2014-Nov-22 01:01N 70°52' W 002°59'1 0.7 7.5
2014-Nov-22 00:01N 70°52' W 002°58'0 0.2 7.4
2014-Nov-21 23:01N 70°52' W 002°57'1 0.6 7.3
2014-Nov-21 22:01N 70°51' W 002°56'1 0.7 7.1
2014-Nov-21 21:01N 70°50' W 002°55'1 0.6 6.3
2014-Nov-21 20:01N 70°50' W 002°55'1 0.7 6.1
2014-Nov-21 19:01N 70°49' W 002°53'1 0.7 6.1
2014-Nov-21 18:01N 70°49' W 002°52'1 0.8 6.1
2014-Nov-21 17:01N 70°48' W 002°50'1 0.7 6.1
2014-Nov-21 16:01N 70°47' W 002°49'1 0.6 6.0
2014-Nov-21 15:01N 70°47' W 002°49'1 0.7 6.4
2014-Nov-21 14:01N 70°46' W 002°47'1 0.8 6.7
2014-Nov-21 13:01N 70°46' W 002°46'1 0.8 6.7
2014-Nov-21 12:01N 70°45' W 002°44'1 0.6 6.6
2014-Nov-21 11:01N 70°45' W 002°42'1 0.8 6.6
2014-Nov-21 10:01N 70°44' W 002°40'1 0.8 6.5
2014-Nov-21 09:01N 70°44' W 002°38'1 1.0 6.4
2014-Nov-21 08:01N 70°43' W 002°36'1 1.0 6.4
2014-Nov-21 07:01N 70°43' W 002°34'1 1.0 6.3
2014-Nov-21 06:01N 70°42' W 002°31'1 1.0 6.4
2014-Nov-21 05:01N 70°41' W 002°29'1 1.3 6.4
2014-Nov-21 04:01N 70°40' W 002°27'1 1.4 6.4
2014-Nov-21 03:01N 70°39' W 002°25'1 0.7 6.1
2014-Nov-21 02:01N 70°38' W 002°23'1 1.3 6.0
2014-Nov-21 01:01N 70°37' W 002°22'1 1.2 6.0
2014-Nov-21 00:01N 70°36' W 002°22'1 1.2 6.0
2014-Nov-20 23:01N 70°35' W 002°22'1 0.6 6.0
2014-Nov-20 22:01N 70°34' W 002°22'1 1.2 6.0
2014-Nov-20 21:01N 70°33' W 002°22'1 1.2 6.0
2014-Nov-20 20:01N 70°32' W 002°23'1 0.7 6.0
2014-Nov-20 19:01N 70°31' W 002°24'1 1.3 6.0
2014-Nov-20 18:01N 70°30' W 002°25'1 0.7 6.0
2014-Nov-20 17:01N 70°29' W 002°26'1 1.0 5.9
2014-Nov-20 16:01N 70°29' W 002°29'1 0.8 6.0
2014-Nov-20 15:01N 70°28' W 002°31'1 1.0 6.0
2014-Nov-20 14:01N 70°28' W 002°33'1 1.4 5.9
2014-Nov-20 13:01N 70°26' W 002°35'1 1.2 5.9
2014-Nov-20 12:01N 70°26' W 002°38'1 0.9 5.9
2014-Nov-20 11:01N 70°25' W 002°40'2 2.2 6.0
2014-Nov-20 10:01N 70°23' W 002°44'0 0.0 6.1
2014-Nov-20 09:01N 70°23' W 002°44'1 1.0 6.1
2014-Nov-20 08:01N 70°23' W 002°46'1 0.9 6.1
2014-Nov-20 07:01N 70°22' W 002°48'1 1.4 6.1
2014-Nov-20 06:01N 70°21' W 002°50'1 0.9 6.1
2014-Nov-20 05:01N 70°20' W 002°52'1 1.0 6.1
2014-Nov-20 04:01N 70°20' W 002°55'1 0.8 6.1
2014-Nov-20 03:01N 70°20' W 002°57'1 1.0 6.1
2014-Nov-20 02:01N 70°19' W 002°59'1 0.9 6.1
2014-Nov-20 01:01N 70°19' W 003°01'1 0.9 6.1
2014-Nov-20 00:01N 70°18' W 003°03'1 0.9 6.1
2014-Nov-19 23:01N 70°17' W 003°05'1 1.3 6.2
2014-Nov-19 22:01N 70°16' W 003°06'1 0.6 6.2
2014-Nov-19 21:01N 70°16' W 003°08'1 0.9 6.2
2014-Nov-19 20:01N 70°16' W 003°10'1 0.7 6.2
2014-Nov-19 19:01N 70°15' W 003°11'1 0.7 6.2
2014-Nov-19 18:01N 70°14' W 003°12'1 0.9 6.2
2014-Nov-19 17:01N 70°14' W 003°14'1 0.7 6.3
2014-Nov-19 16:01N 70°13' W 003°15'0 0.2 6.4
2014-Nov-19 15:01N 70°13' W 003°16'1 0.7 6.4
2014-Nov-19 14:01N 70°13' W 003°17'0 0.4 6.3
2014-Nov-19 13:01N 70°13' W 003°18'1 0.7 6.4
2014-Nov-19 12:01N 70°12' W 003°19'1 0.7 6.4
2014-Nov-19 11:01N 70°11' W 003°20'0 0.2 6.4
2014-Nov-19 10:01N 70°11' W 003°21'0 0.4 6.4
2014-Nov-19 09:01N 70°11' W 003°22'1 0.7 6.3
2014-Nov-19 08:01N 70°11' W 003°23'0 0.4 6.3
2014-Nov-19 07:01N 70°11' W 003°25'1 0.7 6.3
2014-Nov-19 06:01N 70°10' W 003°26'0 0.4 6.4
2014-Nov-19 05:01N 70°10' W 003°27'0 0.4 6.6
2014-Nov-19 04:01N 70°10' W 003°28'1 0.6 6.5
2014-Nov-19 03:01N 70°10' W 003°29'1 0.6 6.3
2014-Nov-19 02:01N 70°10' W 003°31'0 0.4 6.2
2014-Nov-19 01:01N 70°10' W 003°32'0 0.4 6.2
2014-Nov-19 00:01N 70°10' W 003°33'1 0.8 6.2
2014-Nov-18 23:01N 70°10' W 003°35'1 0.6 6.2
2014-Nov-18 22:01N 70°10' W 003°37'1 1.0 6.3
2014-Nov-18 21:01N 70°09' W 003°40'1 0.8 6.4
2014-Nov-18 20:01N 70°09' W 003°42'0 0.5 6.5
2014-Nov-18 19:01N 70°09' W 003°43'1 0.9 6.6
2014-Nov-18 18:01N 70°08' W 003°45'1 0.8 6.7
2014-Nov-18 17:01N 70°08' W 003°47'1 0.6 6.8
2014-Nov-18 16:01N 70°09' W 003°49'1 0.6 6.8
2014-Nov-18 15:01N 70°08' W 003°51'1 0.7 6.9
2014-Nov-18 14:01N 70°08' W 003°53'1 0.9 6.9
2014-Nov-18 13:01N 70°08' W 003°56'1 1.0 6.9
2014-Nov-18 12:01N 70°08' W 003°59'1 1.0 7.0
2014-Nov-18 11:01N 70°08' W 004°01'1 0.8 7.0
2014-Nov-18 10:01N 70°08' W 004°04'1 1.0 7.1
2014-Nov-18 09:01N 70°07' W 004°06'1 0.6 7.1
2014-Nov-18 08:01N 70°07' W 004°08'1 0.9 7.1
2014-Nov-18 07:01N 70°07' W 004°10'1 0.6 7.1
2014-Nov-18 06:01N 70°07' W 004°11'0 0.4 7.1
2014-Nov-18 05:01N 70°07' W 004°13'1 0.9 7.1
2014-Nov-18 04:01N 70°06' W 004°14'1 0.6 7.1
2014-Nov-18 03:01N 70°06' W 004°16'1 0.6 7.1
2014-Nov-18 02:01N 70°06' W 004°18'1 0.6 7.1
2014-Nov-18 01:01N 70°06' W 004°20'1 1.0 7.1
2014-Nov-18 00:01N 70°05' W 004°22'1 0.8 7.1
2014-Nov-17 23:01N 70°05' W 004°25'1 0.9 7.1
2014-Nov-17 22:01N 70°05' W 004°26'1 1.0 7.1
2014-Nov-17 21:01N 70°04' W 004°29'1 0.6 7.1
2014-Nov-17 20:01N 70°04' W 004°31'1 0.7 7.1
2014-Nov-17 19:01N 70°04' W 004°32'1 0.9 7.1
2014-Nov-17 18:01N 70°03' W 004°34'1 0.7 7.1
2014-Nov-17 17:01N 70°02' W 004°35'1 0.7 7.1
2014-Nov-17 16:01N 70°02' W 004°36'0 0.4 7.1
2014-Nov-17 15:01N 70°02' W 004°37'1 0.9 7.1
2014-Nov-17 14:01N 70°01' W 004°39'1 0.7 7.1
2014-Nov-17 13:01N 70°01' W 004°40'0 0.4 7.1
2014-Nov-17 12:01N 70°01' W 004°41'1 0.6 7.1
2014-Nov-17 11:01N 70°00' W 004°42'1 0.7 7.1
2014-Nov-17 10:01N 69°59' W 004°43'1 0.7 7.1
2014-Nov-17 09:01N 69°59' W 004°44'1 1.3 7.1
2014-Nov-17 08:01N 69°58' W 004°46'0 0.0 7.1
2014-Nov-17 07:01N 69°58' W 004°46'1 0.6 7.1
2014-Nov-17 06:01N 69°57' W 004°46'0 0.0 7.1
2014-Nov-17 05:01N 69°57' W 004°46'1 0.6 7.0
2014-Nov-17 04:01N 69°56' W 004°46'1 0.6 7.0
2014-Nov-17 03:01N 69°56' W 004°45'0 0.2 7.0
2014-Nov-17 02:01N 69°56' W 004°44'1 0.6 7.0
2014-Nov-17 01:01N 69°55' W 004°44'0 0.2 7.0
2014-Nov-17 00:01N 69°55' W 004°44'1 0.6 7.0
2014-Nov-16 23:01N 69°55' W 004°44'0 0.2 7.0
2014-Nov-16 22:01N 69°55' W 004°43'1 0.6 7.0
2014-Nov-16 21:01N 69°54' W 004°43'0 0.2 7.0
2014-Nov-16 20:01N 69°54' W 004°43'1 0.6 7.1
2014-Nov-16 19:01N 69°53' W 004°42'0 0.4 7.1
2014-Nov-16 18:01N 69°53' W 004°41'1 0.6 7.1
2014-Nov-16 17:01N 69°53' W 004°40'0 0.4 7.1
2014-Nov-16 16:01N 69°53' W 004°39'0 0.4 7.1
2014-Nov-16 15:01N 69°53' W 004°38'0 0.2 7.1
2014-Nov-16 14:01N 69°53' W 004°37'0 0.2 7.1
2014-Nov-16 13:01N 69°53' W 004°37'0 0.2 7.1
2014-Nov-16 12:01N 69°53' W 004°36'0 0.2 7.1
2014-Nov-16 11:01N 69°53' W 004°35'0 0.2 7.1
2014-Nov-16 10:01N 69°53' W 004°35'1 0.6 7.1
2014-Nov-16 09:01N 69°52' W 004°34'0 0.2 7.1
2014-Nov-16 08:01N 69°52' W 004°34'1 0.6 7.1
2014-Nov-16 07:01N 69°52' W 004°32'0 0.4 7.1
2014-Nov-16 06:01N 69°52' W 004°31'0 0.4 7.1
2014-Nov-16 05:01N 69°52' W 004°29'1 0.9 7.1
2014-Nov-16 04:01N 69°53' W 004°28'1 0.6 7.0
2014-Nov-16 03:01N 69°53' W 004°26'1 0.9 7.0
2014-Nov-16 02:01N 69°53' W 004°24'1 0.6 6.9
2014-Nov-16 01:01N 69°54' W 004°23'0 0.2 6.8
2014-Nov-16 00:01N 69°54' W 004°23'0 0.4 6.1
2014-Nov-15 23:01N 69°54' W 004°22'0 0.2 6.1
2014-Nov-15 22:01N 69°54' W 004°21'0 0.4 6.1
2014-Nov-15 21:01N 69°54' W 004°20'0 0.2 6.1
2014-Nov-15 20:01N 69°54' W 004°19'1 0.7 6.1
2014-Nov-15 19:01N 69°55' W 004°18'1 0.6 6.1
2014-Nov-15 18:01N 69°55' W 004°16'0 0.4 6.1
2014-Nov-15 17:01N 69°55' W 004°15'0 0.4 6.1
2014-Nov-15 16:01N 69°55' W 004°14'1 0.9 6.1
2014-Nov-15 15:01N 69°55' W 004°12'0 0.2 6.1
2014-Nov-15 14:01N 69°55' W 004°11'0 0.4 6.1
2014-Nov-15 13:01N 69°55' W 004°10'0 0.2 6.1
2014-Nov-15 12:01N 69°55' W 004°10'0 0.4 6.1
2014-Nov-15 11:01N 69°55' W 004°08'0 0.4 6.1
2014-Nov-15 10:01N 69°55' W 004°07'1 0.7 6.0
2014-Nov-15 09:01N 69°56' W 004°06'1 0.6 6.0
2014-Nov-15 08:01N 69°56' W 004°04'0 0.4 6.0
2014-Nov-15 07:01N 69°56' W 004°03'0 0.4 6.0
2014-Nov-15 06:01N 69°56' W 004°02'1 0.7 6.0
2014-Nov-15 05:01N 69°56' W 004°01'1 0.6 6.0
2014-Nov-15 04:01N 69°56' W 003°59'0 0.4 6.0
2014-Nov-15 03:01N 69°56' W 003°58'0 0.4 6.0
2014-Nov-15 02:01N 69°56' W 003°56'1 0.6 6.0
2014-Nov-15 01:01N 69°56' W 003°55'0 0.4 6.0
2014-Nov-15 00:01N 69°56' W 003°53'0 0.4 6.0
2014-Nov-14 23:01N 69°56' W 003°52'1 1.0 6.0
2014-Nov-14 22:01N 69°57' W 003°50'0 0.0 6.0
2014-Nov-14 21:01N 69°57' W 003°50'0 0.4 6.0
2014-Nov-14 20:01N 69°57' W 003°49'0 0.4 6.1
2014-Nov-14 19:01N 69°57' W 003°47'1 0.7 6.1
2014-Nov-14 18:01N 69°58' W 003°46'0 0.4 6.1
2014-Nov-14 17:01N 69°58' W 003°45'0 0.4 6.1
2014-Nov-14 16:01N 69°58' W 003°44'1 0.6 6.0
2014-Nov-14 15:01N 69°58' W 003°42'1 0.7 5.9
2014-Nov-14 14:01N 69°57' W 003°41'0 0.4 6.0
2014-Nov-14 13:01N 69°57' W 003°40'0 0.4 6.0
2014-Nov-14 12:01N 69°57' W 003°38'0 0.4 6.0
2014-Nov-14 11:01N 69°57' W 003°37'0 0.4 6.0
2014-Nov-14 10:01N 69°57' W 003°36'1 0.7 6.0
2014-Nov-14 09:01N 69°56' W 003°35'0 0.4 6.0
2014-Nov-14 08:01N 69°56' W 003°34'1 0.7 6.0
2014-Nov-14 07:01N 69°57' W 003°32'0 0.2 6.0
2014-Nov-14 06:01N 69°57' W 003°32'0 0.2 6.0
2014-Nov-14 05:01N 69°57' W 003°31'0 0.2 6.0
2014-Nov-14 04:01N 69°57' W 003°31'1 0.6 6.0
2014-Nov-14 03:01N 69°56' W 003°30'0 0.2 6.0
2014-Nov-14 02:01N 69°56' W 003°29'1 0.6 6.0
2014-Nov-14 01:01N 69°56' W 003°29'0 0.2 6.0
2014-Nov-14 00:01N 69°56' W 003°28'1 0.7 6.0
2014-Nov-13 23:01N 69°55' W 003°27'0 0.2 6.0
2014-Nov-13 22:01N 69°55' W 003°26'1 0.6 6.1
2014-Nov-13 21:01N 69°55' W 003°26'0 0.2 6.0
2014-Nov-13 20:01N 69°55' W 003°26'0 0.2 6.0
2014-Nov-13 19:01N 69°55' W 003°25'   6.0

Dump ship's entire track history